Latest Weather Observations for Luncheon Hill

IDT60801

Issued at 5:05 pm EST Wednesday 30 July 2014 (issued every 30 minutes, with the page automatically refreshed every 10 minutes)

About weather observations | Map of weather stations | Latest weather observations for TAS | Other Formats
Station Details ID: 091259 Name: LUNCHEON HILL (FORESTRY) Lat: -41.15 Lon: 145.15 Height: 344.0 m
Data from the previous 72 hours. | See also: Recent months at Luncheon Hill
Date/Time
EST
Temp
°C
App
Temp
°C
Dew
Point
Rel
Hum
%
Delta-T
°C
Wind Press
QNH
hPa
Press
MSL
hPa
Rain
since 9 am
mm
Dir
 
Spd
km/h
Gust
km/h
Spd
kts
Gust
kts
30/05:00pm 10.3 2.2 10.0 98 0.2 WNW 43 63 23 34 - - 5.4
30/04:30pm 10.4 1.7 10.1 98 0.2 WNW 46 61 25 33 - - 5.2
30/04:00pm 10.6 3.4 10.4 99 0.1 WNW 39 57 21 31 - - 5.0
30/03:30pm 10.4 2.1 10.2 99 0.1 WNW 44 72 24 39 - - 4.6
30/03:00pm 10.4 0.2 10.2 99 0.1 NW 54 78 29 42 - - 4.4
30/02:30pm 10.5 2.3 10.3 99 0.1 WNW 44 59 24 32 - - 3.4
30/02:00pm 10.3 2.6 10.1 99 0.1 WNW 41 63 22 34 - - 3.2
30/01:30pm 10.2 1.9 10.0 99 0.1 WNW 44 70 24 38 - - 3.2
30/01:00pm 9.9 3.2 9.8 99 0.1 W 35 61 19 33 - - 2.4
30/12:30pm 9.6 1.3 9.5 99 0.1 WNW 43 61 23 33 - - 2.0
30/12:00pm 9.9 2.2 8.8 93 0.6 WNW 39 59 21 32 - - 0.6
30/11:30am 9.8 -0.3 9.0 95 0.4 NW 52 80 28 43 - - 0.6
30/11:00am 9.6 1.2 9.0 96 0.3 WNW 43 67 23 36 - - 0.4
30/10:30am 9.7 2.4 8.9 95 0.4 WNW 37 52 20 28 - - 0.4
30/10:00am 10.0 1.3 8.6 91 0.7 WNW 44 69 24 37 - - 0.0
30/09:30am 9.6 2.2 8.4 92 0.6 WNW 37 54 20 29 - - 0.0
30/09:00am 9.3 2.8 8.2 93 0.5 WNW 32 48 17 26 - - 19.8
30/08:30am 9.1 1.7 8.3 95 0.4 WNW 37 52 20 28 - - 19.8
30/08:00am 8.6 2.1 8.2 97 0.2 WNW 32 43 17 23 - - 19.8
30/07:30am 8.5 1.4 8.1 97 0.2 WNW 35 59 19 32 - - 19.8
30/07:00am 8.0 2.8 7.2 95 0.4 W 24 44 13 24 - - 19.6
30/06:30am 8.3 2.6 6.8 90 0.7 WNW 26 39 14 21 - - 18.4
30/06:00am 8.3 2.2 6.8 90 0.7 W 28 41 15 22 - - 18.4
30/05:30am 7.9 1.8 6.8 93 0.5 W 28 43 15 23 - - 18.4
30/05:00am 8.0 2.7 6.8 92 0.6 W 24 37 13 20 - - 18.4
30/04:30am 7.9 1.8 6.5 91 0.7 W 28 44 15 24 - - 18.4
30/04:00am 8.1 2.5 5.4 83 1.2 W 24 50 13 27 - - 18.2
30/03:30am 8.2 2.2 5.1 81 1.4 W 26 48 14 26 - - 18.2
30/03:00am 8.0 1.6 5.3 83 1.2 W 28 46 15 25 - - 18.2
30/02:30am 8.3 1.6 5.6 83 1.2 W 30 50 16 27 - - 18.2
30/02:00am 8.3 1.3 5.8 84 1.2 W 32 54 17 29 - - 18.2
30/01:30am 8.2 0.5 5.3 82 1.3 W 35 57 19 31 - - 18.2
30/01:00am 8.0 1.4 6.0 87 0.9 W 30 57 16 31 - - 18.2
30/12:30am 8.0 1.2 6.8 92 0.6 W 32 59 17 32 - - 18.2
30/12:00am 8.0 1.7 7.6 97 0.2 W 30 56 16 30 - - 18.2
 
Date/Time
EST
Temp
°C
App
Temp
°C
Dew
Point
Rel
Hum
%
Delta-T
°C
Wind Press
QNH
hPa
Press
MSL
hPa
Rain
since 9 am
mm
Dir
 
Spd
km/h
Gust
km/h
Spd
kts
Gust
kts
29/11:30pm 7.9 0.7 7.8 99 0.0 W 35 69 19 37 - - 18.2
29/11:00pm 7.7 0.4 7.3 97 0.2 W 35 61 19 33 - - 17.0
29/10:30pm 8.2 1.4 7.8 97 0.2 W 33 56 18 30 - - 15.6
29/10:00pm 8.4 1.0 8.3 99 0.0 W 37 67 20 36 - - 15.4
29/09:30pm 8.3 1.2 8.0 98 0.1 W 35 65 19 35 - - 15.0
29/09:00pm 8.3 0.9 8.2 99 0.0 W 37 67 20 36 - - 14.8
29/08:30pm 8.4 1.4 8.3 99 0.0 W 35 61 19 33 - - 14.4
29/08:00pm 8.1 -0.7 8.0 99 0.0 W 44 91 24 49 - - 14.4
29/07:30pm 7.9 -3.0 7.1 95 0.4 W 54 95 29 51 - - 12.4
29/07:00pm 9.5 0.8 7.9 90 0.8 W 43 78 23 42 - - 11.6
29/06:30pm 10.2 -0.1 8.1 87 1.0 W 52 83 28 45 - - 11.6
29/06:00pm 9.9 2.0 8.0 88 0.9 W 39 65 21 35 - - 11.6
29/05:30pm 10.1 -1.2 9.5 96 0.3 WNW 59 104 32 56 - - 11.6
29/05:00pm 10.4 -0.9 9.6 95 0.4 WNW 59 91 32 49 - - 11.0
29/04:30pm 10.7 -0.5 9.9 95 0.4 WNW 59 93 32 50 - - 11.0
29/04:00pm 10.6 1.2 10.3 98 0.2 WNW 50 83 27 45 - - 11.0
29/03:30pm 10.4 1.8 10.2 99 0.1 WNW 46 80 25 43 - - 10.8
29/03:00pm 10.4 -2.6 10.1 98 0.2 WNW 69 96 37 52 - - 10.6
29/02:30pm 10.6 0.7 9.8 95 0.4 WNW 52 70 28 38 - - 10.0
29/02:00pm 10.3 0.7 9.4 94 0.5 WNW 50 72 27 39 - - 10.0
29/01:30pm 9.8 -0.2 9.5 98 0.2 WNW 52 70 28 38 - - 10.0
29/01:00pm 9.3 2.1 9.2 99 0.1 WNW 37 50 20 27 - - 10.0
29/12:30pm 9.1 0.7 9.0 99 0.0 WNW 43 59 23 32 - - 10.0
29/12:00pm 8.3 1.2 8.2 99 0.0 WNW 35 54 19 29 - - 10.0
29/11:30am 8.0 0.1 7.9 99 0.0 W 39 74 21 40 - - 9.4
29/11:00am 9.2 2.0 9.1 99 0.1 W 37 69 20 37 - - 7.0
29/10:30am 9.3 4.6 9.2 99 0.1 W 24 44 13 24 - - 5.2
29/10:00am 9.4 2.2 9.3 99 0.1 WNW 37 50 20 27 - - 2.4
29/09:30am 9.0 2.1 8.9 99 0.0 WNW 35 56 19 30 - - 2.2
29/09:00am 9.6 0.0 9.5 99 0.1 WNW 50 69 27 37 - - 27.0
29/08:30am 10.2 -1.0 10.0 99 0.1 WNW 59 78 32 42 - - 26.2
29/08:00am 10.3 0.1 10.1 99 0.1 WNW 54 76 29 41 - - 26.2
29/07:30am 10.2 -1.0 10.0 99 0.1 WNW 59 89 32 48 - - 26.2
29/07:00am 10.5 0.0 10.3 99 0.1 NW 56 80 30 43 - - 25.8
29/06:30am 10.3 -0.5 10.1 99 0.1 NW 57 80 31 43 - - 24.8
29/06:00am 10.2 2.1 10.0 99 0.1 NW 43 57 23 31 - - 24.0
29/05:30am 10.2 1.5 10.0 99 0.1 NW 46 70 25 38 - - 23.2
29/05:00am 10.1 -1.1 9.9 99 0.1 NW 59 82 32 44 - - 22.2
29/04:30am 10.1 0.2 9.9 99 0.1 NW 52 70 28 38 - - 20.4
29/04:00am 10.2 2.1 10.0 99 0.1 NW 43 57 23 31 - - 16.4
29/03:30am 9.9 1.5 9.8 99 0.1 NW 44 61 24 33 - - 14.6
29/03:00am 9.9 2.5 9.8 99 0.1 NNW 39 56 21 30 - - 13.6
29/02:30am 9.7 3.6 9.6 99 0.1 NNW 32 39 17 21 - - 12.8
29/02:00am 9.6 3.2 9.5 99 0.1 NW 33 56 18 30 - - 12.6
29/01:30am 9.6 1.7 9.5 99 0.1 NNW 41 57 22 31 - - 12.6
29/01:00am 9.2 2.0 9.1 99 0.1 NNW 37 52 20 28 - - 12.2
29/12:30am 8.9 2.6 8.8 99 0.0 NNW 32 50 17 27 - - 11.6
29/12:00am 8.9 2.6 8.8 99 0.0 NNW 32 39 17 21 - - 9.8
 
Date/Time
EST
Temp
°C
App
Temp
°C
Dew
Point
Rel
Hum
%
Delta-T
°C
Wind Press
QNH
hPa
Press
MSL
hPa
Rain
since 9 am
mm
Dir
 
Spd
km/h
Gust
km/h
Spd
kts
Gust
kts
28/11:30pm 8.6 3.7 8.5 99 0.0 NNW 24 35 13 19 - - 9.8
28/11:00pm 8.6 2.6 8.5 99 0.0 NW 30 41 16 22 - - 9.8
28/10:30pm 9.4 3.9 9.3 99 0.1 NW 28 39 15 21 - - 9.8
28/10:00pm 9.3 3.8 9.2 99 0.1 NW 28 41 15 22 - - 9.8
28/09:30pm 8.4 5.5 8.3 99 0.0 N 13 17 7 9 - - 8.8
28/09:00pm 8.4 5.5 8.3 99 0.0 NNW 13 19 7 10 - - 7.4
28/08:30pm 8.0 4.3 7.9 99 0.0 NNW 17 22 9 12 - - 7.0
28/08:00pm 8.0 4.3 7.9 99 0.0 NNW 17 24 9 13 - - 7.0
28/07:30pm 7.7 4.3 7.6 99 0.0 N 15 19 8 10 - - 7.0
28/07:00pm 8.0 4.3 7.9 99 0.0 NW 17 24 9 13 - - 7.0
28/06:30pm 7.9 2.8 7.8 99 0.0 WNW 24 32 13 17 - - 7.0
28/06:00pm 8.4 2.3 8.3 99 0.0 WNW 30 41 16 22 - - 7.0
28/05:30pm 8.7 2.6 8.1 96 0.3 NW 30 43 16 23 - - 5.0
28/05:00pm 9.5 4.1 7.9 90 0.8 NW 26 37 14 20 - - 0.6
28/04:30pm 10.6 5.5 7.5 81 1.5 NW 24 39 13 21 - - 0.0
28/04:00pm 10.9 4.1 7.6 80 1.6 NW 33 48 18 26 - - 0.0
28/03:30pm 11.5 5.3 7.8 78 1.8 NW 30 43 16 23 - - 0.0
28/03:00pm 11.8 5.1 7.3 74 2.2 NW 32 41 17 22 - - 0.0
28/02:30pm 13.1 7.2 7.3 68 2.9 NW 28 37 15 20 - - 0.0
28/02:00pm 12.1 4.6 6.4 68 2.8 WNW 35 48 19 26 - - 0.0
28/01:30pm 11.3 4.4 6.6 73 2.3 WNW 32 43 17 23 - - 0.0
28/01:00pm 13.2 6.2 7.0 66 3.1 WNW 33 48 18 26 - - 0.0
28/12:30pm 13.6 7.9 8.4 71 2.6 WNW 28 35 15 19 - - 0.0
28/12:00pm 13.0 7.8 8.7 75 2.2 WNW 26 39 14 21 - - 0.0
28/11:30am 12.1 5.6 9.1 82 1.5 WNW 33 46 18 25 - - 0.0
28/11:00am 11.8 7.4 11.6 99 0.1 NW 26 43 14 23 - - 0.0
28/10:30am 10.2 7.0 10.0 99 0.1 NW 17 22 9 12 - - 0.0
28/10:00am 10.2 7.8 10.0 99 0.1 NNW 13 19 7 10 - - 0.0
28/09:30am 10.1 6.9 9.9 99 0.1 NNW 17 26 9 14 - - 0.0
28/09:00am 9.6 6.3 9.5 99 0.1 N 17 20 9 11 - - 6.0
28/08:30am 9.5 6.5 9.4 99 0.1 NNW 15 19 8 10 - - 6.0
28/08:00am 9.4 6.4 9.3 99 0.1 N 15 17 8 9 - - 6.0
28/07:30am 9.1 5.1 9.0 99 0.0 WNW 20 24 11 13 - - 6.0
28/07:00am 9.1 5.7 9.0 99 0.0 WNW 17 20 9 11 - - 6.0
28/06:30am 9.3 5.9 9.2 99 0.1 WNW 17 28 9 15 - - 6.0
28/06:00am 9.8 4.8 9.7 99 0.1 WNW 26 37 14 20 - - 5.8
28/05:30am 10.0 6.2 9.9 99 0.1 WNW 20 32 11 17 - - 5.8
28/05:00am 9.3 3.4 9.2 99 0.1 WNW 30 44 16 24 - - 5.8
28/04:30am 10.2 3.6 10.0 99 0.1 NNW 35 46 19 25 - - 1.4
28/04:00am 10.2 4.6 10.0 99 0.1 NNW 30 39 16 21 - - 1.2
28/03:30am 10.1 4.8 9.9 99 0.1 NNW 28 44 15 24 - - 1.2
28/03:00am 10.3 5.0 9.8 97 0.3 NNW 28 39 15 21 - - 0.8
28/02:30am 10.2 5.7 9.9 98 0.2 NNW 24 32 13 17 - - 0.8
28/02:00am 10.0 5.8 9.7 98 0.2 NNW 22 32 12 17 - - 0.8
28/01:30am 9.9 5.0 9.8 99 0.1 NNW 26 35 14 19 - - 0.8
28/01:00am 9.8 5.2 9.7 99 0.1 NNW 24 35 13 19 - - 0.8
28/12:30am 9.7 5.8 9.6 99 0.1 N 20 28 11 15 - - 0.8
28/12:00am 9.8 4.8 9.7 99 0.1 N 26 37 14 20 - - 0.8
 
Date/Time
EST
Temp
°C
App
Temp
°C
Dew
Point
Rel
Hum
%
Delta-T
°C
Wind Press
QNH
hPa
Press
MSL
hPa
Rain
since 9 am
mm
Dir
 
Spd
km/h
Gust
km/h
Spd
kts
Gust
kts
27/11:30pm 9.7 4.7 9.6 99 0.1 N 26 35 14 19 - - 0.8
27/11:00pm 9.6 5.3 9.5 99 0.1 N 22 32 12 17 - - 0.8
27/10:30pm 9.7 5.1 9.6 99 0.1 NNW 24 32 13 17 - - 0.8
27/10:00pm 9.7 5.5 9.6 99 0.1 N 22 30 12 16 - - 0.8
27/09:30pm 9.7 5.8 9.6 99 0.1 N 20 26 11 14 - - 0.8
27/09:00pm 9.6 5.0 9.5 99 0.1 N 24 30 13 16 - - 0.8
27/08:30pm 9.5 4.5 9.4 99 0.1 N 26 32 14 17 - - 0.8
27/08:00pm 9.5 5.2 9.4 99 0.1 N 22 28 12 15 - - 0.8
27/07:30pm 9.6 5.0 9.5 99 0.1 NNW 24 32 13 17 - - 0.8
27/07:00pm 9.7 5.1 9.6 99 0.1 NNW 24 32 13 17 - - 0.6
27/06:30pm 9.6 5.0 9.5 99 0.1 NNW 24 33 13 18 - - 0.6
27/06:00pm 9.6 5.3 9.5 99 0.1 NNW 22 39 12 21 - - 0.6
27/05:30pm 9.5 5.6 9.4 99 0.1 N 20 26 11 14 - - 0.6

Other Formats:

Comma delimited format used in spreadsheet applications
http://www.bom.gov.au/fwo/IDT60801/IDT60801.95956.axf

JavaScript Object Notation format (JSON) in row-major order
http://www.bom.gov.au/fwo/IDT60801/IDT60801.95956.json